sensor_id;sensor_type;location;lat;lon;timestamp;P1;durP1;ratioP1;P2;durP2;ratioP2
42770;SDS011;28426;42.872;25.314;2023-07-31T00:01:28;10.10;;;7.97;;
42770;SDS011;28426;42.872;25.314;2023-07-31T00:03:58;8.45;;;7.05;;
42770;SDS011;28426;42.872;25.314;2023-07-31T00:06:30;8.85;;;7.43;;
42770;SDS011;28426;42.872;25.314;2023-07-31T00:09:01;8.63;;;7.53;;
42770;SDS011;28426;42.872;25.314;2023-07-31T00:11:34;9.60;;;7.57;;
42770;SDS011;28426;42.872;25.314;2023-07-31T00:14:05;8.45;;;7.63;;
42770;SDS011;28426;42.872;25.314;2023-07-31T00:16:38;7.85;;;7.07;;
42770;SDS011;28426;42.872;25.314;2023-07-31T00:19:09;8.88;;;7.88;;
42770;SDS011;28426;42.872;25.314;2023-07-31T00:21:40;11.95;;;7.57;;
42770;SDS011;28426;42.872;25.314;2023-07-31T00:24:11;13.23;;;8.02;;
42770;SDS011;28426;42.872;25.314;2023-07-31T00:26:44;9.18;;;7.80;;
42770;SDS011;28426;42.872;25.314;2023-07-31T00:29:15;9.80;;;8.25;;
42770;SDS011;28426;42.872;25.314;2023-07-31T00:31:46;9.63;;;8.02;;
42770;SDS011;28426;42.872;25.314;2023-07-31T00:34:17;9.70;;;7.88;;
42770;SDS011;28426;42.872;25.314;2023-07-31T00:36:48;9.85;;;8.48;;
42770;SDS011;28426;42.872;25.314;2023-07-31T00:39:19;8.75;;;7.85;;
42770;SDS011;28426;42.872;25.314;2023-07-31T00:41:52;11.88;;;7.95;;
42770;SDS011;28426;42.872;25.314;2023-07-31T00:44:23;9.13;;;8.20;;
42770;SDS011;28426;42.872;25.314;2023-07-31T00:46:54;9.60;;;8.60;;
42770;SDS011;28426;42.872;25.314;2023-07-31T00:49:26;12.70;;;8.57;;
42770;SDS011;28426;42.872;25.314;2023-07-31T00:51:58;9.45;;;8.48;;
42770;SDS011;28426;42.872;25.314;2023-07-31T00:54:29;9.95;;;7.88;;
42770;SDS011;28426;42.872;25.314;2023-07-31T00:57:03;11.85;;;8.65;;
42770;SDS011;28426;42.872;25.314;2023-07-31T01:02:05;14.18;;;9.75;;
42770;SDS011;28426;42.872;25.314;2023-07-31T01:04:37;10.60;;;9.35;;
42770;SDS011;28426;42.872;25.314;2023-07-31T01:07:09;11.50;;;8.40;;
42770;SDS011;28426;42.872;25.314;2023-07-31T01:09:47;10.90;;;9.13;;
42770;SDS011;28426;42.872;25.314;2023-07-31T01:12:25;9.50;;;8.50;;
42770;SDS011;28426;42.872;25.314;2023-07-31T01:15:02;11.27;;;9.55;;
42770;SDS011;28426;42.872;25.314;2023-07-31T01:17:34;10.40;;;9.30;;
42770;SDS011;28426;42.872;25.314;2023-07-31T01:20:05;12.05;;;9.40;;
42770;SDS011;28426;42.872;25.314;2023-07-31T01:22:52;10.77;;;9.40;;
42770;SDS011;28426;42.872;25.314;2023-07-31T01:28:33;12.85;;;9.90;;
42770;SDS011;28426;42.872;25.314;2023-07-31T01:31:18;12.23;;;9.73;;
42770;SDS011;28426;42.872;25.314;2023-07-31T01:33:53;11.13;;;9.73;;
42770;SDS011;28426;42.872;25.314;2023-07-31T01:36:28;11.85;;;10.23;;
42770;SDS011;28426;42.872;25.314;2023-07-31T01:39:00;12.02;;;9.63;;
42770;SDS011;28426;42.872;25.314;2023-07-31T01:41:34;12.57;;;10.32;;
42770;SDS011;28426;42.872;25.314;2023-07-31T01:44:06;10.73;;;9.63;;
42770;SDS011;28426;42.872;25.314;2023-07-31T01:46:37;10.93;;;9.20;;
42770;SDS011;28426;42.872;25.314;2023-07-31T01:49:08;11.82;;;9.27;;
42770;SDS011;28426;42.872;25.314;2023-07-31T01:51:39;12.02;;;9.43;;
42770;SDS011;28426;42.872;25.314;2023-07-31T01:54:09;10.27;;;9.18;;
42770;SDS011;28426;42.872;25.314;2023-07-31T01:56:44;11.15;;;9.82;;
42770;SDS011;28426;42.872;25.314;2023-07-31T01:59:15;11.20;;;9.73;;
42770;SDS011;28426;42.872;25.314;2023-07-31T02:01:46;11.38;;;10.07;;
42770;SDS011;28426;42.872;25.314;2023-07-31T02:04:20;10.88;;;9.48;;
42770;SDS011;28426;42.872;25.314;2023-07-31T02:06:52;15.82;;;10.60;;
42770;SDS011;28426;42.872;25.314;2023-07-31T02:09:23;12.10;;;9.85;;
42770;SDS011;28426;42.872;25.314;2023-07-31T02:11:56;11.63;;;10.10;;
42770;SDS011;28426;42.872;25.314;2023-07-31T02:14:27;11.38;;;9.77;;
42770;SDS011;28426;42.872;25.314;2023-07-31T02:16:58;12.52;;;10.38;;
42770;SDS011;28426;42.872;25.314;2023-07-31T02:19:49;10.93;;;9.70;;
42770;SDS011;28426;42.872;25.314;2023-07-31T02:22:20;11.27;;;9.95;;
42770;SDS011;28426;42.872;25.314;2023-07-31T02:24:50;11.30;;;10.13;;
42770;SDS011;28426;42.872;25.314;2023-07-31T02:27:24;12.10;;;9.50;;
42770;SDS011;28426;42.872;25.314;2023-07-31T02:29:55;11.65;;;9.35;;
42770;SDS011;28426;42.872;25.314;2023-07-31T02:32:26;12.00;;;9.57;;
42770;SDS011;28426;42.872;25.314;2023-07-31T02:34:57;11.45;;;9.23;;
42770;SDS011;28426;42.872;25.314;2023-07-31T02:37:30;10.90;;;9.63;;
42770;SDS011;28426;42.872;25.314;2023-07-31T02:40:01;11.32;;;9.77;;
42770;SDS011;28426;42.872;25.314;2023-07-31T02:42:35;11.23;;;10.05;;
42770;SDS011;28426;42.872;25.314;2023-07-31T02:45:06;11.25;;;8.93;;
42770;SDS011;28426;42.872;25.314;2023-07-31T02:47:38;11.40;;;10.20;;
42770;SDS011;28426;42.872;25.314;2023-07-31T02:50:09;12.70;;;10.68;;
42770;SDS011;28426;42.872;25.314;2023-07-31T02:52:40;12.43;;;11.15;;
42770;SDS011;28426;42.872;25.314;2023-07-31T02:55:11;14.82;;;11.50;;
42770;SDS011;28426;42.872;25.314;2023-07-31T02:57:44;13.00;;;11.70;;
42770;SDS011;28426;42.872;25.314;2023-07-31T03:00:15;13.23;;;11.93;;
42770;SDS011;28426;42.872;25.314;2023-07-31T03:02:46;13.73;;;11.32;;
42770;SDS011;28426;42.872;25.314;2023-07-31T03:05:17;12.35;;;10.93;;
42770;SDS011;28426;42.872;25.314;2023-07-31T03:07:48;12.98;;;11.75;;
42770;SDS011;28426;42.872;25.314;2023-07-31T03:10:19;15.65;;;11.82;;
42770;SDS011;28426;42.872;25.314;2023-07-31T03:12:52;13.40;;;12.10;;
42770;SDS011;28426;42.872;25.314;2023-07-31T03:15:23;14.63;;;11.98;;
42770;SDS011;28426;42.872;25.314;2023-07-31T03:17:54;13.95;;;11.82;;
42770;SDS011;28426;42.872;25.314;2023-07-31T03:20:25;13.73;;;12.18;;
42770;SDS011;28426;42.872;25.314;2023-07-31T03:22:55;15.07;;;12.55;;
42770;SDS011;28426;42.872;25.314;2023-07-31T03:25:26;17.27;;;13.27;;
42770;SDS011;28426;42.872;25.314;2023-07-31T03:28:00;13.73;;;11.57;;
42770;SDS011;28426;42.872;25.314;2023-07-31T03:30:31;13.27;;;11.88;;
42770;SDS011;28426;42.872;25.314;2023-07-31T03:33:01;16.27;;;12.38;;
42770;SDS011;28426;42.872;25.314;2023-07-31T03:35:32;16.95;;;12.30;;
42770;SDS011;28426;42.872;25.314;2023-07-31T03:38:03;14.05;;;11.88;;
42770;SDS011;28426;42.872;25.314;2023-07-31T03:40:38;15.43;;;12.52;;
42770;SDS011;28426;42.872;25.314;2023-07-31T03:43:13;15.60;;;12.35;;
42770;SDS011;28426;42.872;25.314;2023-07-31T03:45:45;14.82;;;12.10;;
42770;SDS011;28426;42.872;25.314;2023-07-31T03:48:16;15.38;;;12.68;;
42770;SDS011;28426;42.872;25.314;2023-07-31T03:50:47;12.88;;;11.60;;
42770;SDS011;28426;42.872;25.314;2023-07-31T03:53:18;15.55;;;12.32;;
42770;SDS011;28426;42.872;25.314;2023-07-31T03:55:49;16.25;;;12.23;;
42770;SDS011;28426;42.872;25.314;2023-07-31T03:58:22;20.50;;;13.43;;
42770;SDS011;28426;42.872;25.314;2023-07-31T04:00:53;16.95;;;12.90;;
42770;SDS011;28426;42.872;25.314;2023-07-31T04:03:24;13.93;;;12.40;;
42770;SDS011;28426;42.872;25.314;2023-07-31T04:05:54;15.00;;;12.65;;
42770;SDS011;28426;42.872;25.314;2023-07-31T04:08:26;13.88;;;12.35;;
42770;SDS011;28426;42.872;25.314;2023-07-31T04:10:56;13.88;;;12.38;;
42770;SDS011;28426;42.872;25.314;2023-07-31T04:13:31;14.50;;;12.35;;
42770;SDS011;28426;42.872;25.314;2023-07-31T04:18:32;13.25;;;11.52;;
42770;SDS011;28426;42.872;25.314;2023-07-31T04:21:03;15.15;;;12.23;;
42770;SDS011;28426;42.872;25.314;2023-07-31T04:23:34;13.75;;;11.63;;
42770;SDS011;28426;42.872;25.314;2023-07-31T04:26:05;14.63;;;12.57;;
42770;SDS011;28426;42.872;25.314;2023-07-31T04:28:38;16.15;;;13.48;;
42770;SDS011;28426;42.872;25.314;2023-07-31T04:31:09;14.00;;;12.52;;
42770;SDS011;28426;42.872;25.314;2023-07-31T04:33:40;15.63;;;12.85;;
42770;SDS011;28426;42.872;25.314;2023-07-31T04:36:10;15.98;;;14.20;;
42770;SDS011;28426;42.872;25.314;2023-07-31T04:38:41;15.27;;;13.20;;
42770;SDS011;28426;42.872;25.314;2023-07-31T04:41:12;15.82;;;12.88;;
42770;SDS011;28426;42.872;25.314;2023-07-31T04:43:46;19.60;;;14.10;;
42770;SDS011;28426;42.872;25.314;2023-07-31T04:46:17;17.15;;;14.35;;
42770;SDS011;28426;42.872;25.314;2023-07-31T04:48:47;14.98;;;13.02;;
42770;SDS011;28426;42.872;25.314;2023-07-31T04:51:18;16.92;;;13.90;;
42770;SDS011;28426;42.872;25.314;2023-07-31T04:53:50;17.40;;;13.88;;
42770;SDS011;28426;42.872;25.314;2023-07-31T04:56:21;20.60;;;16.08;;
42770;SDS011;28426;42.872;25.314;2023-07-31T04:58:54;19.00;;;14.48;;
42770;SDS011;28426;42.872;25.314;2023-07-31T05:01:25;17.52;;;14.85;;
42770;SDS011;28426;42.872;25.314;2023-07-31T05:03:56;19.80;;;16.25;;
42770;SDS011;28426;42.872;25.314;2023-07-31T05:06:27;19.20;;;15.73;;
42770;SDS011;28426;42.872;25.314;2023-07-31T05:08:58;20.98;;;16.65;;
42770;SDS011;28426;42.872;25.314;2023-07-31T05:11:29;24.98;;;17.75;;
42770;SDS011;28426;42.872;25.314;2023-07-31T05:14:02;20.20;;;16.50;;
42770;SDS011;28426;42.872;25.314;2023-07-31T05:16:33;18.70;;;16.65;;
42770;SDS011;28426;42.872;25.314;2023-07-31T05:19:05;19.88;;;16.98;;
42770;SDS011;28426;42.872;25.314;2023-07-31T05:21:36;23.20;;;18.10;;
42770;SDS011;28426;42.872;25.314;2023-07-31T05:24:06;22.83;;;17.70;;
42770;SDS011;28426;42.872;25.314;2023-07-31T05:26:37;21.88;;;17.30;;
42770;SDS011;28426;42.872;25.314;2023-07-31T05:29:11;21.08;;;18.33;;
42770;SDS011;28426;42.872;25.314;2023-07-31T05:31:42;16.20;;;14.50;;
42770;SDS011;28426;42.872;25.314;2023-07-31T05:34:12;16.38;;;14.60;;
42770;SDS011;28426;42.872;25.314;2023-07-31T05:36:43;17.13;;;15.32;;
42770;SDS011;28426;42.872;25.314;2023-07-31T05:39:14;18.42;;;16.45;;
42770;SDS011;28426;42.872;25.314;2023-07-31T05:41:47;17.98;;;16.15;;
42770;SDS011;28426;42.872;25.314;2023-07-31T05:44:20;18.55;;;16.65;;
42770;SDS011;28426;42.872;25.314;2023-07-31T05:46:51;19.58;;;16.10;;
42770;SDS011;28426;42.872;25.314;2023-07-31T05:49:22;17.75;;;15.98;;
42770;SDS011;28426;42.872;25.314;2023-07-31T05:51:52;18.17;;;15.13;;
42770;SDS011;28426;42.872;25.314;2023-07-31T05:54:23;17.45;;;15.60;;
42770;SDS011;28426;42.872;25.314;2023-07-31T05:56:54;16.83;;;13.68;;
42770;SDS011;28426;42.872;25.314;2023-07-31T05:59:28;15.63;;;13.30;;
42770;SDS011;28426;42.872;25.314;2023-07-31T06:02:00;14.95;;;13.38;;
42770;SDS011;28426;42.872;25.314;2023-07-31T06:04:31;15.77;;;14.13;;
42770;SDS011;28426;42.872;25.314;2023-07-31T06:07:02;15.07;;;13.57;;
42770;SDS011;28426;42.872;25.314;2023-07-31T06:09:33;14.98;;;13.48;;
42770;SDS011;28426;42.872;25.314;2023-07-31T06:12:05;15.05;;;13.50;;
42770;SDS011;28426;42.872;25.314;2023-07-31T06:14:39;13.88;;;12.55;;
42770;SDS011;28426;42.872;25.314;2023-07-31T06:17:09;14.88;;;13.25;;
42770;SDS011;28426;42.872;25.314;2023-07-31T06:19:40;13.88;;;12.50;;
42770;SDS011;28426;42.872;25.314;2023-07-31T06:22:11;15.25;;;12.25;;
42770;SDS011;28426;42.872;25.314;2023-07-31T06:24:42;15.98;;;11.82;;
42770;SDS011;28426;42.872;25.314;2023-07-31T06:27:12;13.80;;;11.93;;
42770;SDS011;28426;42.872;25.314;2023-07-31T06:29:46;13.40;;;12.00;;
42770;SDS011;28426;42.872;25.314;2023-07-31T06:32:17;14.48;;;12.80;;
42770;SDS011;28426;42.872;25.314;2023-07-31T06:34:48;14.77;;;12.15;;
42770;SDS011;28426;42.872;25.314;2023-07-31T06:37:18;13.85;;;12.02;;
42770;SDS011;28426;42.872;25.314;2023-07-31T06:39:49;12.93;;;11.63;;
42770;SDS011;28426;42.872;25.314;2023-07-31T06:42:20;16.00;;;12.07;;
42770;SDS011;28426;42.872;25.314;2023-07-31T06:44:54;14.20;;;12.70;;
42770;SDS011;28426;42.872;25.314;2023-07-31T06:47:25;12.95;;;11.65;;
42770;SDS011;28426;42.872;25.314;2023-07-31T06:49:56;13.80;;;12.38;;
42770;SDS011;28426;42.872;25.314;2023-07-31T06:52:26;12.98;;;11.65;;
42770;SDS011;28426;42.872;25.314;2023-07-31T06:55:00;14.90;;;11.80;;
42770;SDS011;28426;42.872;25.314;2023-07-31T06:57:33;14.77;;;12.48;;
42770;SDS011;28426;42.872;25.314;2023-07-31T07:00:07;13.95;;;12.40;;
42770;SDS011;28426;42.872;25.314;2023-07-31T07:05:09;13.43;;;12.05;;
42770;SDS011;28426;42.872;25.314;2023-07-31T07:07:40;12.73;;;11.23;;
42770;SDS011;28426;42.872;25.314;2023-07-31T07:10:11;14.63;;;12.20;;
42770;SDS011;28426;42.872;25.314;2023-07-31T07:12:42;17.52;;;12.73;;
42770;SDS011;28426;42.872;25.314;2023-07-31T07:15:16;14.13;;;12.10;;
42770;SDS011;28426;42.872;25.314;2023-07-31T07:17:47;12.52;;;11.15;;
42770;SDS011;28426;42.872;25.314;2023-07-31T07:20:18;13.77;;;12.15;;
42770;SDS011;28426;42.872;25.314;2023-07-31T07:22:49;14.05;;;12.65;;
42770;SDS011;28426;42.872;25.314;2023-07-31T07:25:20;14.18;;;12.43;;
42770;SDS011;28426;42.872;25.314;2023-07-31T07:27:51;14.05;;;12.55;;
42770;SDS011;28426;42.872;25.314;2023-07-31T07:30:25;14.68;;;13.00;;
42770;SDS011;28426;42.872;25.314;2023-07-31T07:32:56;14.73;;;13.10;;
42770;SDS011;28426;42.872;25.314;2023-07-31T07:35:27;16.48;;;12.93;;
42770;SDS011;28426;42.872;25.314;2023-07-31T07:37:58;14.05;;;12.43;;
42770;SDS011;28426;42.872;25.314;2023-07-31T07:40:29;12.32;;;10.32;;
42770;SDS011;28426;42.872;25.314;2023-07-31T07:43:00;13.00;;;10.98;;
42770;SDS011;28426;42.872;25.314;2023-07-31T07:45:33;11.55;;;10.00;;
42770;SDS011;28426;42.872;25.314;2023-07-31T07:48:04;18.02;;;11.90;;
42770;SDS011;28426;42.872;25.314;2023-07-31T07:50:35;14.88;;;11.75;;
42770;SDS011;28426;42.872;25.314;2023-07-31T07:53:08;18.23;;;10.98;;
42770;SDS011;28426;42.872;25.314;2023-07-31T07:55:39;16.20;;;9.73;;
42770;SDS011;28426;42.872;25.314;2023-07-31T07:58:10;21.95;;;11.50;;
42770;SDS011;28426;42.872;25.314;2023-07-31T08:00:43;10.57;;;8.90;;
42770;SDS011;28426;42.872;25.314;2023-07-31T08:03:19;12.48;;;8.00;;
42770;SDS011;28426;42.872;25.314;2023-07-31T08:05:50;9.80;;;8.57;;
42770;SDS011;28426;42.872;25.314;2023-07-31T08:08:21;11.82;;;7.75;;
42770;SDS011;28426;42.872;25.314;2023-07-31T08:10:51;10.38;;;7.18;;
42770;SDS011;28426;42.872;25.314;2023-07-31T08:13:22;8.32;;;6.55;;
42770;SDS011;28426;42.872;25.314;2023-07-31T08:15:56;7.35;;;6.60;;
42770;SDS011;28426;42.872;25.314;2023-07-31T08:18:27;11.20;;;6.95;;
42770;SDS011;28426;42.872;25.314;2023-07-31T08:20:58;14.88;;;7.72;;
42770;SDS011;28426;42.872;25.314;2023-07-31T08:23:29;13.13;;;7.22;;
42770;SDS011;28426;42.872;25.314;2023-07-31T08:26:00;10.38;;;7.30;;
42770;SDS011;28426;42.872;25.314;2023-07-31T08:28:31;7.72;;;6.60;;
42770;SDS011;28426;42.872;25.314;2023-07-31T08:31:05;8.98;;;6.22;;
42770;SDS011;28426;42.872;25.314;2023-07-31T08:33:36;8.65;;;6.68;;
42770;SDS011;28426;42.872;25.314;2023-07-31T08:36:07;9.73;;;7.00;;
42770;SDS011;28426;42.872;25.314;2023-07-31T08:38:38;9.30;;;6.90;;
42770;SDS011;28426;42.872;25.314;2023-07-31T08:41:08;12.00;;;6.82;;
42770;SDS011;28426;42.872;25.314;2023-07-31T08:43:40;9.55;;;6.55;;
42770;SDS011;28426;42.872;25.314;2023-07-31T08:46:14;8.70;;;6.90;;
42770;SDS011;28426;42.872;25.314;2023-07-31T08:48:45;8.52;;;6.20;;
42770;SDS011;28426;42.872;25.314;2023-07-31T08:51:16;9.15;;;5.30;;
42770;SDS011;28426;42.872;25.314;2023-07-31T08:53:47;11.40;;;5.65;;
42770;SDS011;28426;42.872;25.314;2023-07-31T08:56:18;7.95;;;5.47;;
42770;SDS011;28426;42.872;25.314;2023-07-31T08:58:50;9.88;;;5.53;;
42770;SDS011;28426;42.872;25.314;2023-07-31T09:01:26;6.95;;;5.22;;
42770;SDS011;28426;42.872;25.314;2023-07-31T09:04:00;12.68;;;8.05;;
42770;SDS011;28426;42.872;25.314;2023-07-31T09:06:32;7.68;;;5.60;;
42770;SDS011;28426;42.872;25.314;2023-07-31T09:09:03;6.70;;;4.93;;
42770;SDS011;28426;42.872;25.314;2023-07-31T09:11:34;7.25;;;4.80;;
42770;SDS011;28426;42.872;25.314;2023-07-31T09:14:05;6.13;;;4.97;;
42770;SDS011;28426;42.872;25.314;2023-07-31T09:16:53;10.00;;;5.20;;
42770;SDS011;28426;42.872;25.314;2023-07-31T09:19:29;6.90;;;4.70;;
42770;SDS011;28426;42.872;25.314;2023-07-31T09:22:04;6.43;;;4.93;;
42770;SDS011;28426;42.872;25.314;2023-07-31T09:24:35;6.28;;;4.28;;
42770;SDS011;28426;42.872;25.314;2023-07-31T09:27:06;6.95;;;4.60;;
42770;SDS011;28426;42.872;25.314;2023-07-31T09:29:37;5.82;;;4.60;;
42770;SDS011;28426;42.872;25.314;2023-07-31T09:32:12;5.93;;;4.10;;
42770;SDS011;28426;42.872;25.314;2023-07-31T09:34:46;6.97;;;4.20;;
42770;SDS011;28426;42.872;25.314;2023-07-31T09:37:17;5.43;;;4.10;;
42770;SDS011;28426;42.872;25.314;2023-07-31T09:39:48;7.80;;;3.58;;
42770;SDS011;28426;42.872;25.314;2023-07-31T09:42:26;4.60;;;3.53;;
42770;SDS011;28426;42.872;25.314;2023-07-31T09:45:06;7.18;;;3.63;;
42770;SDS011;28426;42.872;25.314;2023-07-31T09:47:48;5.18;;;3.38;;
42770;SDS011;28426;42.872;25.314;2023-07-31T09:50:20;6.35;;;3.90;;
42770;SDS011;28426;42.872;25.314;2023-07-31T09:52:52;5.63;;;3.78;;
42770;SDS011;28426;42.872;25.314;2023-07-31T09:55:23;4.55;;;3.30;;
42770;SDS011;28426;42.872;25.314;2023-07-31T09:57:54;4.28;;;3.30;;
42770;SDS011;28426;42.872;25.314;2023-07-31T10:00:27;5.43;;;3.30;;
42770;SDS011;28426;42.872;25.314;2023-07-31T10:03:04;6.03;;;3.50;;
42770;SDS011;28426;42.872;25.314;2023-07-31T10:05:36;5.03;;;3.38;;
42770;SDS011;28426;42.872;25.314;2023-07-31T10:08:10;8.05;;;3.15;;
42770;SDS011;28426;42.872;25.314;2023-07-31T10:10:45;5.47;;;3.85;;
42770;SDS011;28426;42.872;25.314;2023-07-31T10:13:16;4.72;;;3.05;;
42770;SDS011;28426;42.872;25.314;2023-07-31T10:15:49;4.45;;;3.25;;
42770;SDS011;28426;42.872;25.314;2023-07-31T10:18:23;6.93;;;3.05;;
42770;SDS011;28426;42.872;25.314;2023-07-31T10:20:55;5.07;;;3.33;;
42770;SDS011;28426;42.872;25.314;2023-07-31T10:23:27;6.38;;;2.80;;
42770;SDS011;28426;42.872;25.314;2023-07-31T10:25:59;6.00;;;2.83;;
42770;SDS011;28426;42.872;25.314;2023-07-31T10:28:33;4.88;;;2.88;;
42770;SDS011;28426;42.872;25.314;2023-07-31T10:31:06;4.05;;;2.55;;
42770;SDS011;28426;42.872;25.314;2023-07-31T10:33:40;5.97;;;2.88;;
42770;SDS011;28426;42.872;25.314;2023-07-31T10:36:12;4.78;;;2.40;;
42770;SDS011;28426;42.872;25.314;2023-07-31T10:38:43;5.82;;;2.78;;
42770;SDS011;28426;42.872;25.314;2023-07-31T10:41:14;3.75;;;2.53;;
42770;SDS011;28426;42.872;25.314;2023-07-31T10:43:45;3.78;;;2.70;;
42770;SDS011;28426;42.872;25.314;2023-07-31T10:46:17;3.70;;;2.60;;
42770;SDS011;28426;42.872;25.314;2023-07-31T10:48:50;4.97;;;2.90;;
42770;SDS011;28426;42.872;25.314;2023-07-31T10:51:35;4.82;;;3.10;;
42770;SDS011;28426;42.872;25.314;2023-07-31T10:54:12;4.40;;;2.75;;
42770;SDS011;28426;42.872;25.314;2023-07-31T10:56:45;5.05;;;3.15;;
42770;SDS011;28426;42.872;25.314;2023-07-31T10:59:16;4.35;;;2.67;;
42770;SDS011;28426;42.872;25.314;2023-07-31T11:01:50;4.57;;;3.38;;
42770;SDS011;28426;42.872;25.314;2023-07-31T11:04:25;5.75;;;3.13;;
42770;SDS011;28426;42.872;25.314;2023-07-31T11:06:58;4.40;;;3.00;;
42770;SDS011;28426;42.872;25.314;2023-07-31T11:09:33;5.38;;;3.40;;
42770;SDS011;28426;42.872;25.314;2023-07-31T11:12:04;4.90;;;2.97;;
42770;SDS011;28426;42.872;25.314;2023-07-31T11:14:37;4.53;;;3.25;;
42770;SDS011;28426;42.872;25.314;2023-07-31T11:17:07;7.32;;;4.93;;
42770;SDS011;28426;42.872;25.314;2023-07-31T11:19:41;4.00;;;2.85;;
42770;SDS011;28426;42.872;25.314;2023-07-31T11:22:12;6.30;;;2.90;;
42770;SDS011;28426;42.872;25.314;2023-07-31T11:24:44;6.40;;;2.92;;
42770;SDS011;28426;42.872;25.314;2023-07-31T11:27:14;4.70;;;2.50;;
42770;SDS011;28426;42.872;25.314;2023-07-31T11:29:45;3.92;;;2.30;;
42770;SDS011;28426;42.872;25.314;2023-07-31T11:32:16;3.58;;;2.38;;
42770;SDS011;28426;42.872;25.314;2023-07-31T11:34:53;3.25;;;2.17;;
42770;SDS011;28426;42.872;25.314;2023-07-31T11:37:25;4.20;;;2.20;;
42770;SDS011;28426;42.872;25.314;2023-07-31T11:40:10;5.40;;;2.35;;
42770;SDS011;28426;42.872;25.314;2023-07-31T11:42:41;4.55;;;2.10;;
42770;SDS011;28426;42.872;25.314;2023-07-31T11:45:12;5.57;;;2.58;;
42770;SDS011;28426;42.872;25.314;2023-07-31T11:47:43;4.55;;;2.33;;
42770;SDS011;28426;42.872;25.314;2023-07-31T11:50:17;3.75;;;2.65;;
42770;SDS011;28426;42.872;25.314;2023-07-31T11:52:48;3.88;;;2.70;;
42770;SDS011;28426;42.872;25.314;2023-07-31T11:55:21;3.60;;;2.50;;
42770;SDS011;28426;42.872;25.314;2023-07-31T11:57:55;6.05;;;2.30;;
42770;SDS011;28426;42.872;25.314;2023-07-31T12:00:27;5.25;;;2.47;;
42770;SDS011;28426;42.872;25.314;2023-07-31T12:02:58;4.38;;;2.15;;
42770;SDS011;28426;42.872;25.314;2023-07-31T12:05:32;5.15;;;2.70;;
42770;SDS011;28426;42.872;25.314;2023-07-31T12:08:03;4.07;;;2.75;;
42770;SDS011;28426;42.872;25.314;2023-07-31T12:10:39;4.07;;;2.80;;
42770;SDS011;28426;42.872;25.314;2023-07-31T12:13:11;4.82;;;2.70;;
42770;SDS011;28426;42.872;25.314;2023-07-31T12:15:53;4.40;;;2.80;;
42770;SDS011;28426;42.872;25.314;2023-07-31T12:18:26;4.20;;;2.97;;
42770;SDS011;28426;42.872;25.314;2023-07-31T12:21:01;5.15;;;2.78;;
42770;SDS011;28426;42.872;25.314;2023-07-31T12:23:35;4.78;;;2.83;;
42770;SDS011;28426;42.872;25.314;2023-07-31T12:26:13;4.75;;;3.10;;
42770;SDS011;28426;42.872;25.314;2023-07-31T12:28:47;5.22;;;2.92;;
42770;SDS011;28426;42.872;25.314;2023-07-31T12:31:20;4.53;;;3.00;;
42770;SDS011;28426;42.872;25.314;2023-07-31T12:33:52;4.63;;;3.47;;
42770;SDS011;28426;42.872;25.314;2023-07-31T12:36:25;7.53;;;3.65;;
42770;SDS011;28426;42.872;25.314;2023-07-31T12:41:28;5.03;;;3.30;;
42770;SDS011;28426;42.872;25.314;2023-07-31T12:43:59;4.70;;;3.35;;
42770;SDS011;28426;42.872;25.314;2023-07-31T12:46:30;4.93;;;3.40;;
42770;SDS011;28426;42.872;25.314;2023-07-31T12:49:01;6.10;;;3.47;;
42770;SDS011;28426;42.872;25.314;2023-07-31T12:51:35;4.22;;;3.30;;
42770;SDS011;28426;42.872;25.314;2023-07-31T12:54:06;4.80;;;3.50;;
42770;SDS011;28426;42.872;25.314;2023-07-31T12:56:36;5.20;;;3.30;;
42770;SDS011;28426;42.872;25.314;2023-07-31T12:59:07;5.15;;;3.50;;
42770;SDS011;28426;42.872;25.314;2023-07-31T13:01:38;6.32;;;3.60;;
42770;SDS011;28426;42.872;25.314;2023-07-31T13:04:09;4.72;;;3.42;;
42770;SDS011;28426;42.872;25.314;2023-07-31T13:06:43;5.43;;;3.80;;
42770;SDS011;28426;42.872;25.314;2023-07-31T13:09:14;6.03;;;3.67;;
42770;SDS011;28426;42.872;25.314;2023-07-31T13:11:45;4.50;;;3.40;;
42770;SDS011;28426;42.872;25.314;2023-07-31T13:14:16;4.85;;;3.65;;
42770;SDS011;28426;42.872;25.314;2023-07-31T13:16:47;6.38;;;3.95;;
42770;SDS011;28426;42.872;25.314;2023-07-31T13:19:17;5.60;;;4.10;;
42770;SDS011;28426;42.872;25.314;2023-07-31T13:21:52;4.72;;;3.50;;
42770;SDS011;28426;42.872;25.314;2023-07-31T13:24:22;5.93;;;3.50;;
42770;SDS011;28426;42.872;25.314;2023-07-31T13:26:53;5.15;;;3.78;;
42770;SDS011;28426;42.872;25.314;2023-07-31T13:29:25;5.72;;;3.85;;
42770;SDS011;28426;42.872;25.314;2023-07-31T13:31:57;5.40;;;4.00;;
42770;SDS011;28426;42.872;25.314;2023-07-31T13:34:29;5.25;;;3.78;;
42770;SDS011;28426;42.872;25.314;2023-07-31T13:37:02;5.85;;;4.38;;
42770;SDS011;28426;42.872;25.314;2023-07-31T13:39:34;5.70;;;4.10;;
42770;SDS011;28426;42.872;25.314;2023-07-31T13:42:05;5.43;;;4.50;;
42770;SDS011;28426;42.872;25.314;2023-07-31T13:44:39;6.03;;;4.50;;
42770;SDS011;28426;42.872;25.314;2023-07-31T13:47:10;5.13;;;4.13;;
42770;SDS011;28426;42.872;25.314;2023-07-31T13:49:41;6.22;;;4.00;;
42770;SDS011;28426;42.872;25.314;2023-07-31T13:52:14;5.60;;;4.25;;
42770;SDS011;28426;42.872;25.314;2023-07-31T13:54:45;5.35;;;4.10;;
42770;SDS011;28426;42.872;25.314;2023-07-31T13:57:16;4.40;;;3.55;;
42770;SDS011;28426;42.872;25.314;2023-07-31T13:59:47;5.65;;;4.25;;
42770;SDS011;28426;42.872;25.314;2023-07-31T14:02:18;5.90;;;4.13;;
42770;SDS011;28426;42.872;25.314;2023-07-31T14:04:49;6.43;;;4.40;;
42770;SDS011;28426;42.872;25.314;2023-07-31T14:07:22;5.18;;;4.00;;
42770;SDS011;28426;42.872;25.314;2023-07-31T14:09:53;6.38;;;3.78;;
42770;SDS011;28426;42.872;25.314;2023-07-31T14:12:24;5.50;;;4.13;;
42770;SDS011;28426;42.872;25.314;2023-07-31T14:17:40;6.03;;;4.47;;
42770;SDS011;28426;42.872;25.314;2023-07-31T14:20:11;7.05;;;4.05;;
42770;SDS011;28426;42.872;25.314;2023-07-31T14:22:46;7.20;;;4.90;;
42770;SDS011;28426;42.872;25.314;2023-07-31T14:25:16;7.28;;;4.60;;
42770;SDS011;28426;42.872;25.314;2023-07-31T14:27:47;5.97;;;4.32;;
42770;SDS011;28426;42.872;25.314;2023-07-31T14:30:18;6.10;;;4.43;;
42770;SDS011;28426;42.872;25.314;2023-07-31T14:32:49;6.57;;;4.68;;
42770;SDS011;28426;42.872;25.314;2023-07-31T14:35:21;6.35;;;4.93;;
42770;SDS011;28426;42.872;25.314;2023-07-31T14:37:55;6.85;;;4.57;;
42770;SDS011;28426;42.872;25.314;2023-07-31T14:40:25;6.32;;;4.60;;
42770;SDS011;28426;42.872;25.314;2023-07-31T14:42:56;7.15;;;4.95;;
42770;SDS011;28426;42.872;25.314;2023-07-31T14:45:27;6.85;;;5.32;;
42770;SDS011;28426;42.872;25.314;2023-07-31T14:47:58;7.55;;;4.88;;
42770;SDS011;28426;42.872;25.314;2023-07-31T14:50:30;5.93;;;4.78;;
42770;SDS011;28426;42.872;25.314;2023-07-31T14:53:03;8.90;;;4.82;;
42770;SDS011;28426;42.872;25.314;2023-07-31T14:55:34;5.60;;;4.15;;
42770;SDS011;28426;42.872;25.314;2023-07-31T14:58:05;6.30;;;4.50;;
42770;SDS011;28426;42.872;25.314;2023-07-31T15:00:39;8.95;;;4.85;;
42770;SDS011;28426;42.872;25.314;2023-07-31T15:03:10;6.07;;;4.68;;
42770;SDS011;28426;42.872;25.314;2023-07-31T15:05:41;6.45;;;4.40;;
42770;SDS011;28426;42.872;25.314;2023-07-31T15:08:15;6.13;;;4.80;;